Time;durP1;ratioP1;P1;durP2;ratioP2;P2;SDS_P1;SDS_P2;PMS_P1;PMS_P2;Temp;Humidity;BMP_temperature;BMP_pressure;BME280_temperature;BME280_humidity;BME280_pressure;Samples;Min_cycle;Max_cycle;Signal;HPM_P1;HPM_P2
2021/06/28 00:01:42;;;;;;;3.53;2.60;;;23.40;70.60;;;;;;5062533;28;20222;-68
2021/06/28 00:04:10;;;;;;;10.43;3.03;;;23.30;70.50;;;;;;5062061;28;20214;-68
2021/06/28 00:06:36;;;;;;;10.47;2.70;;;23.20;70.80;;;;;;5066505;28;20209;-68
2021/06/28 00:09:04;;;;;;;5.53;2.50;;;23.00;71.60;;;;;;5062132;28;20278;-68
2021/06/28 00:11:31;;;;;;;3.87;3.10;;;22.90;72.10;;;;;;5061011;28;20263;-68
2021/06/28 00:13:58;;;;;;;6.43;3.10;;;22.90;72.60;;;;;;5064398;28;20307;-68
2021/06/28 00:16:25;;;;;;;6.77;3.07;;;22.80;73.00;;;;;;5062729;28;20734;-69
2021/06/28 00:18:53;;;;;;;8.73;3.27;;;22.80;73.00;;;;;;5063632;28;20218;-68
2021/06/28 00:21:21;;;;;;;7.03;4.13;;;22.80;73.30;;;;;;5061008;28;20211;-68
2021/06/28 00:23:48;;;;;;;5.40;3.87;;;22.80;73.40;;;;;;5063058;28;20278;-68
2021/06/28 00:26:15;;;;;;;4.33;3.93;;;22.80;73.60;;;;;;5063605;28;20213;-68
2021/06/28 00:28:42;;;;;;;4.43;3.90;;;22.70;74.30;;;;;;5060988;28;20283;-68
2021/06/28 00:31:09;;;;;;;5.23;2.93;;;22.60;74.70;;;;;;5062624;28;20670;-68
2021/06/28 00:33:37;;;;;;;5.23;3.00;;;22.70;74.90;;;;;;5063147;28;20237;-69
2021/06/28 00:36:05;;;;;;;5.47;3.90;;;22.70;75.20;;;;;;5062456;28;20221;-69
2021/06/28 00:38:32;;;;;;;5.43;3.83;;;22.70;75.60;;;;;;5064886;28;20207;-69
2021/06/28 00:40:59;;;;;;;5.03;3.53;;;22.80;75.70;;;;;;5060998;28;20254;-69
2021/06/28 00:43:26;;;;;;;5.50;3.07;;;22.80;75.60;;;;;;5063494;28;20590;-69
2021/06/28 00:45:53;;;;;;;10.23;2.80;;;22.80;75.50;;;;;;5063187;28;20273;-69
2021/06/28 00:48:20;;;;;;;7.20;3.00;;;22.90;75.90;;;;;;5063343;28;20213;-68
2021/06/28 00:50:52;;;;;;;3.70;3.23;;;22.90;74.90;;;;;;5060695;28;20272;-68
2021/06/28 00:53:22;;;;;;;3.20;2.90;;;23.00;74.90;;;;;;5062004;28;20258;-68
2021/06/28 00:55:53;;;;;;;8.47;3.17;;;23.00;74.70;;;;;;5063673;28;20732;-68
2021/06/28 00:58:20;;;;;;;5.90;3.73;;;23.00;74.50;;;;;;5066696;28;20207;-68
2021/06/28 01:00:47;;;;;;;5.47;3.07;;;23.00;74.60;;;;;;5064794;28;20207;-68
2021/06/28 01:03:15;;;;;;;8.33;3.67;;;23.00;74.80;;;;;;5059795;28;20228;-69
2021/06/28 01:05:42;;;;;;;8.67;3.67;;;22.90;75.00;;;;;;5066873;28;20228;-68
2021/06/28 01:08:10;;;;;;;9.30;3.97;;;22.90;75.20;;;;;;5063398;28;20210;-68
2021/06/28 01:10:38;;;;;;;13.23;3.80;;;22.80;75.30;;;;;;5066628;28;20271;-68
2021/06/28 01:13:06;;;;;;;4.97;3.90;;;22.70;75.30;;;;;;5067483;28;20293;-68
2021/06/28 01:15:34;;;;;;;7.53;3.93;;;22.70;75.60;;;;;;5063844;28;20239;-68
2021/06/28 01:18:04;;;;;;;8.70;5.10;;;22.70;76.10;;;;;;5067754;28;20664;-68
2021/06/28 01:20:31;;;;;;;6.47;4.80;;;22.70;76.50;;;;;;5064171;28;20218;-68
2021/06/28 01:23:13;;;;;;;6.43;4.60;;;22.70;76.60;;;;;;5066565;28;20583;-68
2021/06/28 01:25:40;;;;;;;6.13;5.40;;;22.70;76.70;;;;;;5066799;28;20279;-69
2021/06/28 01:28:07;;;;;;;6.50;5.57;;;22.70;76.70;;;;;;5066807;28;20216;-68
2021/06/28 01:30:34;;;;;;;4.33;3.63;;;22.70;76.70;;;;;;5065367;28;20217;-68
2021/06/28 01:33:02;;;;;;;16.40;5.57;;;22.70;76.60;;;;;;5063391;28;20238;-68
2021/06/28 01:35:29;;;;;;;9.00;5.70;;;22.70;76.40;;;;;;5067392;28;20301;-69
2021/06/28 01:37:56;;;;;;;4.97;4.33;;;22.70;76.80;;;;;;5064759;28;20219;-68
2021/06/28 01:40:24;;;;;;;8.63;5.60;;;22.60;76.60;;;;;;5066436;28;20221;-69
2021/06/28 01:42:51;;;;;;;6.30;4.63;;;22.50;77.00;;;;;;5064049;28;20291;-69
2021/06/28 01:45:21;;;;;;;6.00;4.80;;;22.50;77.40;;;;;;5064574;28;20222;-69
2021/06/28 01:47:49;;;;;;;6.20;5.43;;;22.50;77.50;;;;;;5066202;28;20228;-68
2021/06/28 01:50:18;;;;;;;8.47;5.77;;;22.50;77.70;;;;;;5064361;28;20214;-68
2021/06/28 01:52:46;;;;;;;7.77;4.77;;;22.50;77.90;;;;;;5063497;28;20249;-68
2021/06/28 01:55:16;;;;;;;5.97;5.47;;;22.50;78.00;;;;;;5063563;28;20638;-68
2021/06/28 01:57:46;;;;;;;8.27;6.10;;;22.40;78.10;;;;;;5064251;28;20283;-68
2021/06/28 02:00:18;;;;;;;5.97;5.17;;;22.40;78.40;;;;;;5065916;28;20213;-68
2021/06/28 02:03:05;;;;;;;7.40;4.60;;;22.40;78.70;;;;;;5063551;28;20211;-68
2021/06/28 02:05:36;;;;;;;6.30;4.90;;;22.30;78.80;;;;;;5067740;28;20222;-68
2021/06/28 02:08:05;;;;;;;6.97;6.27;;;22.30;78.60;;;;;;5065685;28;20213;-68
2021/06/28 02:10:34;;;;;;;6.73;5.77;;;22.30;78.90;;;;;;5064292;28;20226;-69
2021/06/28 02:13:01;;;;;;;7.60;6.90;;;22.20;79.20;;;;;;5066714;28;20303;-69
2021/06/28 02:15:30;;;;;;;9.87;6.47;;;22.20;79.40;;;;;;5062850;28;20242;-69
2021/06/28 02:17:58;;;;;;;6.70;4.60;;;22.10;79.60;;;;;;5063855;28;20297;-69
2021/06/28 02:20:27;;;;;;;6.97;4.80;;;22.10;79.50;;;;;;5065311;28;20213;-69
2021/06/28 02:22:58;;;;;;;14.60;4.97;;;22.00;79.20;;;;;;5063835;28;20218;-68
2021/06/28 02:25:25;;;;;;;11.73;4.20;;;21.90;79.30;;;;;;5063001;28;20283;-68
2021/06/28 02:27:52;;;;;;;11.23;5.03;;;21.90;79.40;;;;;;5062662;28;20260;-68
2021/06/28 02:30:20;;;;;;;14.37;5.80;;;21.80;79.40;;;;;;5066394;28;20221;-68
2021/06/28 02:32:47;;;;;;;8.27;5.63;;;21.80;79.70;;;;;;5062568;28;20246;-68
2021/06/28 02:35:14;;;;;;;7.23;5.27;;;21.90;80.00;;;;;;5064341;28;20214;-68
2021/06/28 02:37:41;;;;;;;11.63;4.47;;;21.80;79.70;;;;;;5063918;28;20278;-68
2021/06/28 02:40:11;;;;;;;14.23;5.30;;;21.70;79.40;;;;;;5065230;28;20218;-68
2021/06/28 02:42:40;;;;;;;7.23;4.63;;;21.70;79.10;;;;;;5064715;28;20205;-68
2021/06/28 02:45:08;;;;;;;5.33;3.83;;;21.60;79.00;;;;;;5064357;28;20217;-68
2021/06/28 02:47:36;;;;;;;5.80;4.10;;;21.60;79.10;;;;;;5062193;28;20227;-68
2021/06/28 02:50:12;;;;;;;7.00;4.37;;;21.60;79.20;;;;;;5064029;28;20210;-68
2021/06/28 02:52:41;;;;;;;7.43;4.43;;;21.60;79.30;;;;;;5061927;28;20222;-68
2021/06/28 02:55:10;;;;;;;7.93;4.80;;;21.60;79.00;;;;;;5061326;28;20214;-68
2021/06/28 02:57:38;;;;;;;10.20;4.63;;;21.50;79.00;;;;;;5061116;28;20272;-68
2021/06/28 03:00:07;;;;;;;8.50;5.57;;;21.50;79.10;;;;;;5060147;28;20552;-68
2021/06/28 03:02:35;;;;;;;8.20;5.57;;;21.50;79.70;;;;;;5063814;28;20229;-68
2021/06/28 03:05:04;;;;;;;7.60;6.60;;;21.40;79.90;;;;;;5063005;28;20313;-68
2021/06/28 03:07:32;;;;;;;9.10;5.90;;;21.40;80.80;;;;;;5063665;28;20213;-68
2021/06/28 03:09:59;;;;;;;6.73;4.73;;;21.40;81.20;;;;;;5060759;28;20718;-68
2021/06/28 03:12:27;;;;;;;6.57;5.20;;;21.40;81.00;;;;;;5066483;28;20284;-68
2021/06/28 03:14:54;;;;;;;5.57;4.53;;;21.40;80.50;;;;;;5062489;28;20254;-68
2021/06/28 03:17:21;;;;;;;8.97;5.27;;;21.40;80.20;;;;;;5062455;28;20206;-68
2021/06/28 03:19:48;;;;;;;7.53;6.17;;;21.40;79.70;;;;;;5063862;28;20221;-68
2021/06/28 03:22:18;;;;;;;4.73;4.10;;;21.30;80.10;;;;;;5062824;28;20260;-68
2021/06/28 03:24:45;;;;;;;5.63;5.10;;;21.10;80.00;;;;;;5062121;28;20214;-68
2021/06/28 03:27:12;;;;;;;6.87;4.70;;;21.10;80.00;;;;;;5064855;28;20229;-68
2021/06/28 03:29:39;;;;;;;6.00;5.23;;;21.10;80.00;;;;;;5064735;28;20213;-68
2021/06/28 03:32:07;;;;;;;5.87;5.30;;;21.10;80.00;;;;;;5064286;28;20222;-68
2021/06/28 03:34:34;;;;;;;7.67;6.60;;;21.00;79.80;;;;;;5061864;28;20238;-68
2021/06/28 03:37:01;;;;;;;9.27;8.37;;;20.90;80.40;;;;;;5065456;28;20206;-68
2021/06/28 03:39:28;;;;;;;8.97;8.10;;;20.90;81.70;;;;;;5061657;28;20214;-68
2021/06/28 03:41:55;;;;;;;8.77;6.67;;;21.00;82.30;;;;;;5060897;28;20221;-68
2021/06/28 03:44:22;;;;;;;8.17;7.47;;;21.00;82.40;;;;;;5062941;28;20219;-68
2021/06/28 03:46:49;;;;;;;13.47;10.90;;;21.00;82.20;;;;;;5061636;28;20651;-68
2021/06/28 03:49:17;;;;;;;7.90;7.20;;;21.10;83.20;;;;;;5061193;28;20218;-68
2021/06/28 03:51:44;;;;;;;10.40;9.50;;;21.20;83.40;;;;;;5063024;28;20278;-68
2021/06/28 03:54:11;;;;;;;10.83;9.93;;;21.20;83.30;;;;;;5063757;28;20242;-68
2021/06/28 03:56:38;;;;;;;10.83;9.73;;;21.30;83.90;;;;;;5061444;28;20210;-68
2021/06/28 03:59:05;;;;;;;11.13;10.07;;;21.30;84.30;;;;;;5063305;28;20221;-68
2021/06/28 04:01:32;;;;;;;16.27;10.00;;;21.40;84.50;;;;;;5063766;28;20244;-68
2021/06/28 04:03:59;;;;;;;10.00;9.00;;;21.40;84.50;;;;;;5061362;28;20214;-68
2021/06/28 04:06:26;;;;;;;9.90;8.60;;;21.50;84.40;;;;;;5067418;28;20217;-68
2021/06/28 04:08:53;;;;;;;11.50;10.13;;;21.50;84.20;;;;;;5061768;28;20222;-68
2021/06/28 04:11:20;;;;;;;11.80;10.60;;;21.50;84.30;;;;;;5064379;28;20210;-68
2021/06/28 04:13:47;;;;;;;10.50;9.50;;;21.60;84.50;;;;;;5062900;28;20547;-68
2021/06/28 04:16:14;;;;;;;12.67;9.50;;;21.60;84.40;;;;;;5061403;28;20296;-68
2021/06/28 04:18:41;;;;;;;9.70;8.10;;;21.80;84.30;;;;;;5064264;28;20210;-68
2021/06/28 04:21:08;;;;;;;8.73;7.87;;;21.90;83.90;;;;;;5062110;28;20283;-68
2021/06/28 04:23:36;;;;;;;10.70;7.50;;;21.90;83.30;;;;;;5061664;28;20222;-68
2021/06/28 04:26:03;;;;;;;8.53;7.60;;;22.10;82.80;;;;;;5063963;28;20233;-68
2021/06/28 04:28:30;;;;;;;12.50;7.33;;;22.10;82.30;;;;;;5060325;28;20585;-68
2021/06/28 04:30:57;;;;;;;10.70;7.00;;;22.20;81.90;;;;;;5061132;28;20210;-68
2021/06/28 04:33:25;;;;;;;10.33;7.43;;;22.30;81.50;;;;;;5064601;28;20573;-68
2021/06/28 04:35:53;;;;;;;95.57;13.37;;;22.40;81.10;;;;;;5068820;28;20205;-68
2021/06/28 04:38:20;;;;;;;45.27;8.83;;;22.60;80.70;;;;;;5067523;28;20211;-68
2021/06/28 04:40:48;;;;;;;8.00;7.20;;;22.70;80.30;;;;;;5068297;28;20544;-68
2021/06/28 04:43:15;;;;;;;10.33;8.33;;;22.80;80.10;;;;;;5064564;28;20706;-68
2021/06/28 04:45:42;;;;;;;8.63;7.87;;;22.90;79.90;;;;;;5064916;28;20284;-68
2021/06/28 04:48:09;;;;;;;9.47;8.53;;;22.90;79.80;;;;;;5064502;28;20219;-69
2021/06/28 04:50:36;;;;;;;9.70;8.90;;;23.00;79.70;;;;;;5065888;28;20669;-69
2021/06/28 04:53:03;;;;;;;9.83;9.00;;;23.10;79.70;;;;;;5066900;28;20263;-69
2021/06/28 04:55:30;;;;;;;11.53;10.40;;;23.20;79.60;;;;;;5064436;28;20214;-69
2021/06/28 04:57:57;;;;;;;10.77;9.87;;;23.30;79.50;;;;;;5064041;28;20222;-69
2021/06/28 05:00:26;;;;;;;11.67;10.73;;;23.40;79.30;;;;;;5064779;28;20222;-69
2021/06/28 05:02:53;;;;;;;14.37;11.37;;;23.50;79.20;;;;;;5064112;28;20660;-69
2021/06/28 05:05:20;;;;;;;13.00;10.97;;;23.60;79.00;;;;;;5068045;28;20210;-69
2021/06/28 05:07:47;;;;;;;12.27;10.97;;;23.70;78.80;;;;;;5066682;28;20268;-69
2021/06/28 05:10:15;;;;;;;12.20;10.27;;;23.90;78.70;;;;;;5063677;28;20276;-69
2021/06/28 05:12:43;;;;;;;12.00;10.80;;;24.00;78.30;;;;;;5068343;28;20236;-69
2021/06/28 05:15:12;;;;;;;11.33;9.47;;;24.20;78.00;;;;;;5066443;28;20672;-69
2021/06/28 05:17:39;;;;;;;10.47;9.47;;;24.30;77.80;;;;;;5064372;28;20214;-69
2021/06/28 05:20:09;;;;;;;16.37;10.77;;;24.40;77.50;;;;;;5065230;28;20283;-69
2021/06/28 05:22:36;;;;;;;13.17;10.57;;;24.50;77.20;;;;;;5066837;28;20221;-69
2021/06/28 05:25:05;;;;;;;11.10;9.67;;;24.70;77.10;;;;;;5064755;28;20534;-69
2021/06/28 05:27:33;;;;;;;10.40;9.30;;;24.90;76.70;;;;;;5067470;28;20247;-69
2021/06/28 05:30:03;;;;;;;9.07;8.10;;;25.00;76.20;;;;;;5066428;28;20217;-69
2021/06/28 05:32:31;;;;;;;8.83;7.97;;;25.20;75.60;;;;;;5065330;28;20214;-69
2021/06/28 05:34:58;;;;;;;9.87;7.23;;;25.40;75.00;;;;;;5064338;28;20234;-69
2021/06/28 05:37:25;;;;;;;7.07;5.67;;;25.60;74.50;;;;;;5066079;28;20210;-69
2021/06/28 05:39:52;;;;;;;5.90;5.10;;;25.90;73.60;;;;;;5064912;28;20241;-70
2021/06/28 05:42:19;;;;;;;5.53;5.03;;;26.20;72.50;;;;;;5063104;28;20272;-69
2021/06/28 05:44:46;;;;;;;5.27;4.77;;;26.50;71.30;;;;;;5063748;28;20218;-69
2021/06/28 05:47:14;;;;;;;8.40;5.07;;;26.80;70.00;;;;;;5064825;28;20222;-69
2021/06/28 05:49:42;;;;;;;5.67;3.93;;;27.00;68.90;;;;;;5066482;28;20209;-69
2021/06/28 05:52:11;;;;;;;9.07;4.63;;;27.20;68.20;;;;;;5063966;28;20211;-69
2021/06/28 05:54:38;;;;;;;8.87;5.27;;;27.40;67.40;;;;;;5063402;28;20233;-69
2021/06/28 05:57:06;;;;;;;5.33;4.83;;;27.60;66.50;;;;;;5063451;28;20644;-69
2021/06/28 05:59:35;;;;;;;5.97;4.60;;;27.70;66.30;;;;;;5065145;28;20262;-69
2021/06/28 06:02:02;;;;;;;7.93;4.43;;;27.70;66.40;;;;;;5065488;28;20221;-69
2021/06/28 06:04:29;;;;;;;6.23;4.50;;;27.90;66.40;;;;;;5062966;28;20272;-69
2021/06/28 06:06:58;;;;;;;6.53;5.13;;;28.10;66.10;;;;;;5068451;28;20271;-69
2021/06/28 06:09:25;;;;;;;4.77;4.30;;;28.30;65.10;;;;;;5065224;28;20214;-69
2021/06/28 06:11:52;;;;;;;6.40;4.63;;;28.30;64.80;;;;;;5064127;28;20315;-69
2021/06/28 06:14:19;;;;;;;7.00;4.30;;;28.40;64.60;;;;;;5064459;28;20291;-69
2021/06/28 06:16:46;;;;;;;10.80;4.23;;;28.50;64.20;;;;;;5064967;28;20290;-69
2021/06/28 06:19:13;;;;;;;7.63;4.17;;;28.50;64.60;;;;;;5062744;28;20217;-69
2021/06/28 06:21:41;;;;;;;4.77;4.03;;;28.60;64.60;;;;;;5064576;28;20278;-69
2021/06/28 06:24:07;;;;;;;4.20;3.90;;;28.80;64.30;;;;;;5065004;28;20214;-69
2021/06/28 06:26:35;;;;;;;4.83;4.33;;;29.00;64.00;;;;;;5062459;28;20218;-69
2021/06/28 06:29:02;;;;;;;5.33;4.47;;;29.20;63.40;;;;;;5064337;28;20635;-69
2021/06/28 06:31:29;;;;;;;6.10;4.50;;;29.40;63.20;;;;;;5065069;28;20303;-69
2021/06/28 06:33:56;;;;;;;4.40;4.00;;;29.50;62.70;;;;;;5062450;28;20269;-69
2021/06/28 06:36:27;;;;;;;7.20;4.00;;;29.50;62.50;;;;;;5066047;28;20652;-69
2021/06/28 06:38:55;;;;;;;5.40;4.57;;;29.50;62.80;;;;;;5066222;28;20669;-69
2021/06/28 06:41:21;;;;;;;6.80;4.30;;;29.50;62.80;;;;;;5062573;28;20225;-69
2021/06/28 06:43:49;;;;;;;5.53;4.13;;;29.60;62.80;;;;;;5066011;28;20587;-69
2021/06/28 06:46:16;;;;;;;6.00;4.10;;;29.50;62.30;;;;;;5062076;28;20225;-69
2021/06/28 06:48:43;;;;;;;9.63;4.57;;;29.40;63.10;;;;;;5064702;28;20601;-69
2021/06/28 06:51:10;;;;;;;4.07;3.67;;;29.50;63.40;;;;;;5063662;28;20214;-69
2021/06/28 06:53:37;;;;;;;4.00;3.60;;;29.60;63.00;;;;;;5062438;28;20233;-69
2021/06/28 06:56:07;;;;;;;4.20;3.60;;;29.70;63.10;;;;;;5061736;28;20237;-69
2021/06/28 06:58:36;;;;;;;4.13;2.70;;;29.90;63.30;;;;;;5063379;28;20211;-69
2021/06/28 07:01:06;;;;;;;2.93;2.60;;;30.20;63.00;;;;;;5065200;28;20210;-69
2021/06/28 07:03:33;;;;;;;3.93;2.67;;;30.50;62.60;;;;;;5064584;28;20651;-69
2021/06/28 07:06:00;;;;;;;19.23;4.37;;;30.60;62.20;;;;;;5066719;28;20246;-69
2021/06/28 07:08:28;;;;;;;5.97;2.60;;;30.70;62.10;;;;;;5061810;28;20662;-69
2021/06/28 07:10:55;;;;;;;6.90;2.60;;;30.70;61.90;;;;;;5063399;28;20578;-69
2021/06/28 07:13:22;;;;;;;4.37;2.47;;;30.80;61.60;;;;;;5067606;28;20244;-70
2021/06/28 07:15:49;;;;;;;2.77;2.27;;;31.00;61.30;;;;;;5060558;28;20652;-69
2021/06/28 07:18:16;;;;;;;8.40;2.23;;;31.20;60.90;;;;;;5062989;28;20249;-69
2021/06/28 07:20:43;;;;;;;5.63;2.50;;;31.40;61.30;;;;;;5062225;28;20214;-69
2021/06/28 07:23:10;;;;;;;7.57;2.40;;;31.60;61.00;;;;;;5064499;28;20205;-69
2021/06/28 07:25:37;;;;;;;2.43;2.00;;;31.90;60.90;;;;;;5062935;28;20535;-69
2021/06/28 07:28:05;;;;;;;3.23;1.77;;;32.20;60.30;;;;;;5062059;28;20211;-69
2021/06/28 07:30:32;;;;;;;2.13;1.87;;;32.50;59.40;;;;;;5064355;28;20583;-69
2021/06/28 07:32:59;;;;;;;2.23;2.03;;;32.70;58.60;;;;;;5062000;28;20293;-69
2021/06/28 07:35:27;;;;;;;3.57;2.07;;;32.70;57.80;;;;;;5065213;28;20291;-69
2021/06/28 07:37:54;;;;;;;4.10;2.03;;;32.80;58.30;;;;;;5061571;28;20219;-69
2021/06/28 07:40:22;;;;;;;2.43;2.00;;;32.90;58.00;;;;;;5061433;28;20214;-69
2021/06/28 07:42:49;;;;;;;2.70;1.90;;;33.00;57.20;;;;;;5061716;28;20210;-69
2021/06/28 07:45:18;;;;;;;4.17;1.90;;;33.10;57.20;;;;;;5061705;28;20214;-69
2021/06/28 07:47:47;;;;;;;3.10;1.67;;;33.20;57.00;;;;;;5065327;28;20222;-69
2021/06/28 07:50:15;;;;;;;1.67;1.57;;;33.40;56.70;;;;;;5061739;28;20218;-69
2021/06/28 07:52:43;;;;;;;2.13;1.97;;;33.50;55.50;;;;;;5063426;28;20221;-69
2021/06/28 07:55:13;;;;;;;3.00;1.97;;;33.50;55.30;;;;;;5063926;28;20241;-69
2021/06/28 07:57:40;;;;;;;1.57;1.47;;;33.50;55.10;;;;;;5064679;28;20210;-69
2021/06/28 08:00:10;;;;;;;4.70;2.10;;;33.50;54.70;;;;;;5063159;28;20272;-69
2021/06/28 08:02:37;;;;;;;2.00;1.80;;;33.50;54.70;;;;;;5062149;28;20628;-69
2021/06/28 08:05:06;;;;;;;2.27;2.07;;;33.50;55.00;;;;;;5062737;28;20221;-69
2021/06/28 08:07:33;;;;;;;2.83;1.67;;;33.60;55.10;;;;;;5066272;28;20994;-70
2021/06/28 08:10:07;;;;;;;6.73;1.90;;;33.80;54.20;;;;;;5064978;28;20214;-69
2021/06/28 08:12:34;;;;;;;3.37;1.80;;;34.00;54.60;;;;;;5069337;28;20516;-69
2021/06/28 08:15:02;;;;;;;2.97;1.40;;;34.10;53.10;;;;;;5068898;28;20246;-69
2021/06/28 08:17:29;;;;;;;2.67;1.40;;;34.10;52.20;;;;;;5065131;28;20750;-70
2021/06/28 08:19:56;;;;;;;5.43;1.67;;;34.10;51.90;;;;;;5067158;28;20221;-69
2021/06/28 08:22:23;;;;;;;4.63;2.00;;;34.20;52.30;;;;;;5064568;28;20218;-69
2021/06/28 08:24:50;;;;;;;2.40;2.00;;;34.30;52.20;;;;;;5065313;28;20268;-69
2021/06/28 08:27:18;;;;;;;1.77;1.63;;;34.50;51.70;;;;;;5066483;28;20209;-69
2021/06/28 08:29:45;;;;;;;3.17;1.60;;;34.50;51.60;;;;;;5067718;28;20214;-69
2021/06/28 08:32:11;;;;;;;5.10;1.90;;;34.60;49.90;;;;;;5064903;28;20224;-69
2021/06/28 08:34:39;;;;;;;3.27;1.50;;;34.70;49.50;;;;;;5066175;28;20230;-69
2021/06/28 08:37:09;;;;;;;2.30;1.60;;;34.70;50.30;;;;;;5068117;28;20248;-69
2021/06/28 08:39:36;;;;;;;1.67;1.57;;;34.80;50.40;;;;;;5067076;28;20221;-69
2021/06/28 08:42:06;;;;;;;2.00;1.60;;;34.90;51.30;;;;;;5066489;28;20827;-69
2021/06/28 08:44:34;;;;;;;1.50;1.40;;;35.20;50.60;;;;;;5064851;28;20210;-69
2021/06/28 08:47:03;;;;;;;2.87;1.50;;;35.30;48.60;;;;;;5066450;28;20313;-69
2021/06/28 08:49:31;;;;;;;7.43;1.43;;;35.30;48.90;;;;;;5067062;28;20213;-69
2021/06/28 08:51:59;;;;;;;4.60;1.40;;;35.20;47.60;;;;;;5064796;28;20219;-69
2021/06/28 08:54:26;;;;;;;2.07;1.77;;;35.40;46.70;;;;;;5066071;28;20237;-69
2021/06/28 08:56:53;;;;;;;2.37;1.30;;;35.40;46.40;;;;;;5066897;28;20267;-69
2021/06/28 08:59:20;;;;;;;5.63;1.70;;;35.40;46.60;;;;;;5068908;28;20644;-69
2021/06/28 09:01:47;;;;;;;1.70;1.50;;;35.50;46.60;;;;;;5065764;28;20218;-69
2021/06/28 09:04:15;;;;;;;1.33;1.23;;;35.70;46.00;;;;;;5064442;28;20210;-69
2021/06/28 09:06:42;;;;;;;4.40;1.40;;;35.80;45.60;;;;;;5068363;28;20213;-69
2021/06/28 09:09:12;;;;;;;4.33;1.30;;;35.90;45.40;;;;;;5065984;28;20283;-69
2021/06/28 09:11:47;;;;;;;1.63;1.47;;;36.00;44.60;;;;;;5066299;28;20221;-69
2021/06/28 09:14:15;;;;;;;1.40;1.20;;;36.20;44.40;;;;;;5068053;28;20210;-69
2021/06/28 09:16:45;;;;;;;3.07;1.20;;;36.20;43.60;;;;;;5063897;28;20257;-69
2021/06/28 09:19:16;;;;;;;4.20;1.30;;;36.10;42.70;;;;;;5063244;28;20746;-69
2021/06/28 09:21:52;;;;;;;3.20;1.47;;;36.10;43.00;;;;;;5064238;28;20245;-69
2021/06/28 09:24:24;;;;;;;1.90;1.60;;;36.20;43.60;;;;;;5065379;28;20221;-69
2021/06/28 09:26:55;;;;;;;1.97;1.37;;;36.40;43.80;;;;;;5063333;28;20221;-69
2021/06/28 09:29:36;;;;;;;2.03;1.33;;;36.50;43.60;;;;;;5065536;28;20210;-69
2021/06/28 09:32:12;;;;;;;4.30;1.77;;;36.60;43.10;;;;;;5064569;28;20248;-69
2021/06/28 09:34:41;;;;;;;5.57;1.50;;;36.50;43.20;;;;;;5063738;28;20245;-69
2021/06/28 09:37:13;;;;;;;3.03;1.37;;;36.40;43.50;;;;;;5067420;28;20220;-69
2021/06/28 09:39:43;;;;;;;4.00;1.30;;;36.40;42.90;;;;;;5063722;28;20210;-69
2021/06/28 09:42:16;;;;;;;5.90;1.20;;;36.40;43.40;;;;;;5064037;28;20221;-69
2021/06/28 09:45:03;;;;;;;5.70;1.70;;;36.40;41.60;;;;;;5063857;28;20215;-69
2021/06/28 09:47:33;;;;;;;1.87;1.73;;;36.30;42.70;;;;;;5066278;28;20221;-70
2021/06/28 09:50:16;;;;;;;5.67;1.60;;;36.40;42.90;;;;;;5063972;28;20248;-70
2021/06/28 09:52:56;;;;;;;4.47;1.37;;;36.60;42.90;;;;;;5063679;28;20700;-70
2021/06/28 09:55:30;;;;;;;3.97;1.33;;;36.90;42.70;;;;;;5063384;28;20257;-69
2021/06/28 09:58:24;;;;;;;5.60;1.43;;;37.10;42.50;;;;;;5063960;28;20293;-69
2021/06/28 10:00:57;;;;;;;1.93;1.37;;;37.10;42.10;;;;;;5062411;28;20211;-69
2021/06/28 10:03:39;;;;;;;3.67;1.77;;;36.90;41.20;;;;;;5064830;28;20687;-69
2021/06/28 10:06:14;;;;;;;8.20;2.20;;;36.80;42.20;;;;;;5063234;28;20217;-69
2021/06/28 10:08:45;;;;;;;3.27;1.63;;;36.80;42.60;;;;;;5066072;28;20217;-69
2021/06/28 10:11:21;;;;;;;3.23;1.57;;;36.90;43.00;;;;;;5064059;28;20227;-69
2021/06/28 10:13:52;;;;;;;2.70;1.50;;;36.90;43.00;;;;;;5064215;28;20226;-69
2021/06/28 10:16:22;;;;;;;6.33;2.00;;;36.90;42.70;;;;;;5064168;28;20296;-69
2021/06/28 10:18:51;;;;;;;2.40;1.40;;;36.80;41.80;;;;;;5066443;28;20313;-69
2021/06/28 10:21:18;;;;;;;1.77;1.43;;;36.70;41.70;;;;;;5063678;28;20223;-69
2021/06/28 10:23:45;;;;;;;4.83;2.07;;;36.70;42.00;;;;;;5063262;28;20263;-69
2021/06/28 10:26:13;;;;;;;2.47;1.67;;;36.90;41.70;;;;;;5065398;28;20222;-69
2021/06/28 10:28:40;;;;;;;4.10;1.43;;;37.10;40.90;;;;;;5061370;28;20248;-69
2021/06/28 10:31:09;;;;;;;2.07;1.27;;;37.10;41.70;;;;;;5065151;28;20214;-69
2021/06/28 10:33:38;;;;;;;1.27;1.00;;;37.30;40.80;;;;;;5062732;28;20223;-69
2021/06/28 10:36:14;;;;;;;3.80;1.20;;;37.50;38.50;;;;;;5066365;28;20260;-69
2021/06/28 10:38:50;;;;;;;2.57;1.20;;;37.40;38.60;;;;;;5062642;28;20210;-69
2021/06/28 10:41:52;;;;;;;3.80;1.23;;;37.30;38.90;;;;;;5063866;28;20221;-69
2021/06/28 10:44:21;;;;;;;1.80;1.23;;;37.10;39.20;;;;;;5063552;28;20210;-69
2021/06/28 10:46:53;;;;;;;1.93;1.50;;;37.00;39.40;;;;;;5062538;28;20255;-69
2021/06/28 10:49:46;;;;;;;2.83;1.20;;;37.00;39.80;;;;;;5061445;28;20209;-69
2021/06/28 10:52:38;;;;;;;2.53;1.10;;;37.10;39.10;;;;;;5065030;28;20268;-69
2021/06/28 10:55:19;;;;;;;1.40;1.30;;;37.10;39.10;;;;;;5064734;28;20276;-69
2021/06/28 10:57:53;;;;;;;3.53;1.13;;;37.10;39.10;;;;;;5063997;28;20210;-69
2021/06/28 11:00:50;;;;;;;3.10;1.43;;;37.10;39.90;;;;;;5064078;28;20224;-69
2021/06/28 11:03:22;;;;;;;1.53;1.20;;;37.20;39.20;;;;;;5061374;28;20222;-69
2021/06/28 11:06:16;;;;;;;1.93;1.10;;;37.00;38.30;;;;;;5064828;28;20221;-69
2021/06/28 11:08:57;;;;;;;4.93;1.50;;;36.60;38.60;;;;;;5063206;28;20640;-69
2021/06/28 11:11:42;;;;;;;4.30;1.57;;;36.40;38.70;;;;;;5062326;28;20222;-69
2021/06/28 11:14:19;;;;;;;2.10;1.07;;;36.30;39.50;;;;;;5064319;28;20209;-69
2021/06/28 11:17:06;;;;;;;3.70;1.70;;;36.30;39.00;;;;;;5064552;28;20258;-69
2021/06/28 11:19:51;;;;;;;1.73;1.20;;;36.20;39.00;;;;;;5064848;28;20206;-68
2021/06/28 11:22:33;;;;;;;3.07;1.30;;;36.30;38.30;;;;;;5064408;28;20234;-68
2021/06/28 11:25:01;;;;;;;4.40;1.43;;;36.20;39.20;;;;;;5064798;28;20733;-69
2021/06/28 11:27:29;;;;;;;1.93;0.90;;;36.20;37.60;;;;;;5061993;28;20235;-69
2021/06/28 11:29:56;;;;;;;2.13;1.23;;;36.20;36.90;;;;;;5062047;28;20213;-69
2021/06/28 11:32:29;;;;;;;2.90;1.13;;;36.10;37.00;;;;;;5064654;28;20237;-69
2021/06/28 11:34:59;;;;;;;2.33;1.20;;;35.90;37.10;;;;;;5064089;28;20214;-69
2021/06/28 11:37:28;;;;;;;0.83;0.80;;;35.90;36.80;;;;;;5065340;28;20724;-69
2021/06/28 11:39:58;;;;;;;4.13;1.20;;;35.90;36.50;;;;;;5062264;28;20221;-69
2021/06/28 11:42:29;;;;;;;2.53;1.03;;;35.90;37.20;;;;;;5061893;28;20222;-69
2021/06/28 11:45:01;;;;;;;2.73;1.37;;;36.10;36.60;;;;;;5062310;28;20225;-69
2021/06/28 11:47:49;;;;;;;2.83;1.03;;;36.30;36.30;;;;;;5062322;28;20214;-69
2021/06/28 11:50:25;;;;;;;4.33;0.83;;;36.50;36.00;;;;;;5064038;28;20271;-69
2021/06/28 11:53:03;;;;;;;2.77;1.03;;;36.50;33.80;;;;;;5062955;28;20213;-69
2021/06/28 11:55:32;;;;;;;2.47;1.07;;;36.40;34.30;;;;;;5064448;28;20290;-69
2021/06/28 11:58:00;;;;;;;2.60;1.10;;;36.40;35.00;;;;;;5062962;28;20225;-69
2021/06/28 12:00:46;;;;;;;5.30;1.30;;;36.50;35.30;;;;;;5060294;28;20214;-69
2021/06/28 12:03:26;;;;;;;2.80;1.00;;;36.50;34.30;;;;;;5064193;28;20209;-69
2021/06/28 12:05:53;;;;;;;3.23;1.17;;;36.60;34.50;;;;;;5064090;28;20218;-69
2021/06/28 12:08:25;;;;;;;2.93;1.20;;;36.70;33.60;;;;;;5060899;28;20281;-69
2021/06/28 12:11:00;;;;;;;2.30;1.20;;;36.60;33.50;;;;;;5062478;28;20567;-69
2021/06/28 12:13:39;;;;;;;1.37;0.90;;;36.60;33.70;;;;;;5061079;28;20213;-69
2021/06/28 12:16:13;;;;;;;4.90;0.83;;;36.60;33.60;;;;;;5060526;28;20246;-69
2021/06/28 12:18:40;;;;;;;4.90;1.00;;;36.80;32.60;;;;;;5062481;28;20212;-69
2021/06/28 12:21:07;;;;;;;1.63;0.80;;;36.70;32.40;;;;;;5063727;28;20221;-69
2021/06/28 12:23:34;;;;;;;4.10;1.03;;;36.50;32.70;;;;;;5061310;28;20222;-69
2021/06/28 12:26:12;;;;;;;1.10;1.00;;;36.40;33.70;;;;;;5062385;28;20245;-69
2021/06/28 12:28:39;;;;;;;3.87;0.97;;;36.40;33.20;;;;;;5061649;28;20218;-69
2021/06/28 12:31:15;;;;;;;4.80;1.00;;;36.60;32.70;;;;;;5062486;28;20599;-69
2021/06/28 12:33:42;;;;;;;4.43;1.07;;;36.70;32.50;;;;;;5061243;28;20283;-69
2021/06/28 12:36:19;;;;;;;2.20;0.90;;;36.80;32.00;;;;;;5064775;28;20593;-69
2021/06/28 12:38:56;;;;;;;2.53;1.20;;;36.80;32.30;;;;;;5061077;28;20214;-69
2021/06/28 12:41:23;;;;;;;6.47;1.33;;;36.80;31.50;;;;;;5061344;28;20217;-69
2021/06/28 12:43:51;;;;;;;2.67;1.30;;;36.70;32.30;;;;;;5063630;28;20216;-69
2021/06/28 12:46:20;;;;;;;1.87;0.80;;;36.60;31.90;;;;;;5062787;28;20259;-69
2021/06/28 12:48:48;;;;;;;2.57;1.17;;;36.40;32.10;;;;;;5060686;28;20869;-69
2021/06/28 12:51:20;;;;;;;3.93;1.00;;;36.40;31.90;;;;;;5062899;28;20221;-69
2021/06/28 12:53:48;;;;;;;3.33;0.90;;;36.40;32.80;;;;;;5066347;28;20213;-69
2021/06/28 12:56:18;;;;;;;2.20;0.90;;;36.50;32.50;;;;;;5066826;28;20242;-69
2021/06/28 12:58:47;;;;;;;5.37;4.03;;;36.60;32.40;;;;;;5065404;28;20218;-69